EAN660 DNYO-OEJN
Flight info
| Callsign | EAN660 |
|---|---|
| Flight time | N/A |
| Altitude | 31000 |
| Route | YOL UV472 MIU/N0484F320 UG727 EDARA/N0484F310 UR778 BUNLU/N0481F330 UR778 TONBA R778 KFR/N0468F350 R778 DITAR M999 MUVOL |
| Aircraft | B738/M-SDE2E3FGHIRWXY/LB1 |
Departure
| Time | 2026-04-24 03:55 |
|---|---|
| Airport | Yola Airport (DNYO) |
Arrival
| Time | N/A |
|---|---|
| Airport | King Abdulaziz International Airport (OEJN) |
| Time | Latitude | Longitude | Altitude | Speed | Heading |
|---|---|---|---|---|---|
| 2026-04-24 03:44 | 9.26532 | 12.42684 | 585 ft | 0 kts | 12° |
| 2026-04-24 03:52 | 9.26535 | 12.42688 | 590 ft | 2 kts | 38° |
| 2026-04-24 03:52 | 9.26548 | 12.42697 | 592 ft | 3 kts | 33° |
| 2026-04-24 03:52 | 9.26582 | 12.42705 | 593 ft | 8 kts | 356° |
| 2026-04-24 03:53 | 9.26661 | 12.42716 | 596 ft | 14 kts | 40° |
| 2026-04-24 03:53 | 9.26698 | 12.42827 | 599 ft | 21 kts | 74° |
| 2026-04-24 03:53 | 9.26813 | 12.42871 | 597 ft | 21 kts | 345° |
| 2026-04-24 03:53 | 9.26971 | 12.42838 | 597 ft | 23 kts | 350° |
| 2026-04-24 03:54 | 9.27076 | 12.42797 | 598 ft | 9 kts | 27° |
| 2026-04-24 03:54 | 9.27077 | 12.42814 | 599 ft | 3 kts | 140° |
| 2026-04-24 03:54 | 9.27046 | 12.42824 | 598 ft | 8 kts | 171° |
| 2026-04-24 03:54 | 9.26726 | 12.42878 | 598 ft | 86 kts | 170° |
| 2026-04-24 03:55 | 9.25890 | 12.43018 | 600 ft | 155 kts | 171° |
| 2026-04-24 03:55 | 9.24729 | 12.43172 | 1084 ft | 174 kts | 174° |
| 2026-04-24 03:55 | 9.23490 | 12.43391 | 1861 ft | 181 kts | 155° |
| 2026-04-24 03:55 | 9.22542 | 12.44240 | 2592 ft | 197 kts | 118° |
| 2026-04-24 03:56 | 9.22314 | 12.45668 | 2868 ft | 222 kts | 77° |
| 2026-04-24 03:56 | 9.23096 | 12.47057 | 3069 ft | 240 kts | 40° |
| 2026-04-24 03:56 | 9.24646 | 12.47793 | 3276 ft | 257 kts | 12° |
| 2026-04-24 03:56 | 9.26429 | 12.48076 | 3811 ft | 266 kts | 6° |
| 2026-04-24 03:57 | 9.28269 | 12.48280 | 4620 ft | 266 kts | 5° |
| 2026-04-24 03:57 | 9.30120 | 12.48485 | 5378 ft | 269 kts | 6° |
| 2026-04-24 03:57 | 9.31987 | 12.48710 | 6096 ft | 272 kts | 6° |
| 2026-04-24 03:57 | 9.33878 | 12.48953 | 6817 ft | 275 kts | 7° |
| 2026-04-24 03:58 | 9.35785 | 12.49210 | 7515 ft | 278 kts | 7° |
| 2026-04-24 03:58 | 9.37714 | 12.49479 | 8226 ft | 281 kts | 7° |
| 2026-04-24 03:58 | 9.39660 | 12.49756 | 8912 ft | 284 kts | 7° |
| 2026-04-24 03:58 | 9.41623 | 12.50041 | 9585 ft | 287 kts | 8° |
| 2026-04-24 03:59 | 9.43606 | 12.50331 | 10238 ft | 290 kts | 8° |
| 2026-04-24 03:59 | 9.45671 | 12.50635 | 10493 ft | 310 kts | 8° |
| 2026-04-24 03:59 | 9.47847 | 12.50957 | 10659 ft | 330 kts | 8° |
| 2026-04-24 03:59 | 9.50187 | 12.51304 | 10825 ft | 350 kts | 8° |
| 2026-04-24 04:00 | 9.52660 | 12.51672 | 10975 ft | 368 kts | 8° |
| 2026-04-24 04:00 | 9.55258 | 12.52059 | 11158 ft | 384 kts | 8° |
| 2026-04-24 04:00 | 9.57937 | 12.52459 | 11587 ft | 392 kts | 8° |
| 2026-04-24 04:00 | 9.60638 | 12.52862 | 12166 ft | 394 kts | 8° |
| 2026-04-24 04:01 | 9.63373 | 12.53271 | 12753 ft | 397 kts | 8° |
| 2026-04-24 04:01 | 9.66116 | 12.53680 | 13300 ft | 400 kts | 8° |
| 2026-04-24 04:01 | 9.68878 | 12.54093 | 13818 ft | 403 kts | 8° |
| 2026-04-24 04:01 | 9.71669 | 12.54509 | 14364 ft | 406 kts | 8° |
| 2026-04-24 04:02 | 9.74476 | 12.54928 | 14886 ft | 409 kts | 8° |
| 2026-04-24 04:02 | 9.77303 | 12.55350 | 15395 ft | 412 kts | 8° |
| 2026-04-24 04:02 | 9.80126 | 12.55873 | 15878 ft | 415 kts | 12° |
| 2026-04-24 04:02 | 9.82954 | 12.56563 | 16374 ft | 418 kts | 14° |
| 2026-04-24 04:03 | 9.85741 | 12.57301 | 16802 ft | 421 kts | 14° |
| 2026-04-24 04:03 | 9.88584 | 12.58072 | 17240 ft | 424 kts | 14° |
| 2026-04-24 04:03 | 9.91451 | 12.58846 | 17675 ft | 427 kts | 14° |
| 2026-04-24 04:03 | 9.94337 | 12.59616 | 18102 ft | 430 kts | 14° |
| 2026-04-24 04:04 | 9.97239 | 12.60382 | 18515 ft | 433 kts | 14° |
| 2026-04-24 04:04 | 10.00165 | 12.61146 | 18917 ft | 435 kts | 14° |
| 2026-04-24 04:04 | 10.03119 | 12.61913 | 19308 ft | 438 kts | 14° |
| 2026-04-24 04:04 | 10.06083 | 12.62681 | 19712 ft | 441 kts | 14° |
| 2026-04-24 04:05 | 10.09064 | 12.63452 | 20090 ft | 443 kts | 14° |
| 2026-04-24 04:05 | 10.12024 | 12.64217 | 20465 ft | 446 kts | 14° |
| 2026-04-24 04:05 | 10.15035 | 12.64996 | 20835 ft | 448 kts | 14° |
| 2026-04-24 04:05 | 10.18059 | 12.65778 | 21182 ft | 450 kts | 14° |
| 2026-04-24 04:06 | 10.21107 | 12.66567 | 21512 ft | 452 kts | 14° |
| 2026-04-24 04:06 | 10.24168 | 12.67360 | 21835 ft | 455 kts | 14° |
| 2026-04-24 04:06 | 10.27237 | 12.68154 | 22155 ft | 457 kts | 14° |
| 2026-04-24 04:06 | 10.30325 | 12.68955 | 22466 ft | 459 kts | 14° |
| 2026-04-24 04:07 | 10.33421 | 12.69757 | 22767 ft | 461 kts | 14° |
| 2026-04-24 04:07 | 10.36545 | 12.70567 | 23055 ft | 463 kts | 14° |
| 2026-04-24 04:07 | 10.39677 | 12.71379 | 23344 ft | 464 kts | 14° |
| 2026-04-24 04:07 | 10.42813 | 12.72192 | 23611 ft | 467 kts | 14° |
| 2026-04-24 04:08 | 10.45972 | 12.73011 | 23877 ft | 469 kts | 14° |
| 2026-04-24 04:08 | 10.49136 | 12.73832 | 24144 ft | 470 kts | 14° |
| 2026-04-24 04:08 | 10.52274 | 12.74646 | 24400 ft | 472 kts | 14° |
| 2026-04-24 04:08 | 10.55458 | 12.75473 | 24649 ft | 474 kts | 14° |
| 2026-04-24 04:09 | 10.58666 | 12.76305 | 24891 ft | 475 kts | 14° |
| 2026-04-24 04:09 | 10.61880 | 12.77139 | 25132 ft | 477 kts | 14° |
| 2026-04-24 04:09 | 10.65104 | 12.77977 | 25356 ft | 479 kts | 14° |
| 2026-04-24 04:09 | 10.68333 | 12.78816 | 25579 ft | 480 kts | 14° |
| 2026-04-24 04:10 | 10.71582 | 12.79660 | 25819 ft | 481 kts | 14° |
| 2026-04-24 04:10 | 10.74823 | 12.80502 | 26124 ft | 480 kts | 14° |
| 2026-04-24 04:10 | 10.78062 | 12.81344 | 26486 ft | 479 kts | 14° |
| 2026-04-24 04:11 | 10.84503 | 12.83018 | 27083 ft | 478 kts | 14° |
| 2026-04-24 04:11 | 10.87724 | 12.83856 | 27362 ft | 478 kts | 14° |
| 2026-04-24 04:11 | 10.90945 | 12.84694 | 27673 ft | 477 kts | 14° |
| 2026-04-24 04:11 | 10.94161 | 12.85531 | 27985 ft | 476 kts | 14° |
| 2026-04-24 04:12 | 10.97322 | 12.86354 | 28281 ft | 475 kts | 14° |
| 2026-04-24 04:12 | 11.00540 | 12.87191 | 28556 ft | 475 kts | 14° |
| 2026-04-24 04:12 | 11.03736 | 12.88023 | 28854 ft | 474 kts | 14° |
| 2026-04-24 04:12 | 11.06936 | 12.88857 | 29158 ft | 473 kts | 14° |
| 2026-04-24 04:13 | 11.10119 | 12.89686 | 29446 ft | 472 kts | 14° |
| 2026-04-24 04:13 | 11.13306 | 12.90517 | 29722 ft | 472 kts | 14° |
| 2026-04-24 04:13 | 11.16447 | 12.91335 | 29994 ft | 471 kts | 14° |
| 2026-04-24 04:13 | 11.19663 | 12.92174 | 30278 ft | 471 kts | 14° |
| 2026-04-24 04:14 | 11.22790 | 12.92989 | 30550 ft | 470 kts | 14° |
| 2026-04-24 04:14 | 11.25959 | 12.93815 | 30807 ft | 470 kts | 14° |
| 2026-04-24 04:14 | 11.29127 | 12.94642 | 31061 ft | 469 kts | 14° |
| 2026-04-24 04:14 | 11.32287 | 12.95466 | 31307 ft | 469 kts | 14° |
| 2026-04-24 04:15 | 11.35443 | 12.96290 | 31556 ft | 468 kts | 14° |
| 2026-04-24 04:15 | 11.38597 | 12.97113 | 31799 ft | 468 kts | 14° |
| 2026-04-24 04:15 | 11.41750 | 12.97936 | 32029 ft | 467 kts | 14° |
| 2026-04-24 04:15 | 11.44899 | 12.98759 | 32263 ft | 467 kts | 14° |
| 2026-04-24 04:16 | 11.48048 | 12.99581 | 32493 ft | 466 kts | 14° |
| 2026-04-24 04:16 | 11.51186 | 13.00401 | 32706 ft | 466 kts | 14° |
| 2026-04-24 04:16 | 11.54319 | 13.01220 | 32924 ft | 465 kts | 14° |
| 2026-04-24 04:16 | 11.56408 | 13.01766 | 33064 ft | 465 kts | 14° |
| 2026-04-24 04:17 | 11.59534 | 13.02583 | 33277 ft | 464 kts | 14° |
| 2026-04-24 04:17 | 11.62672 | 13.03404 | 33475 ft | 464 kts | 14° |
| 2026-04-24 04:17 | 11.65799 | 13.04222 | 33669 ft | 464 kts | 14° |
| 2026-04-24 04:17 | 11.68920 | 13.05038 | 33867 ft | 463 kts | 14° |
| 2026-04-24 04:18 | 11.72051 | 13.05858 | 34058 ft | 463 kts | 14° |
| 2026-04-24 04:18 | 11.75162 | 13.06672 | 34244 ft | 462 kts | 14° |
| 2026-04-24 04:18 | 11.78285 | 13.07490 | 34424 ft | 462 kts | 14° |
| 2026-04-24 04:18 | 11.81401 | 13.08306 | 34603 ft | 462 kts | 14° |
| 2026-04-24 04:19 | 11.84478 | 13.09112 | 34766 ft | 461 kts | 13° |
| 2026-04-24 04:19 | 11.87634 | 13.09723 | 34918 ft | 461 kts | 6° |
| 2026-04-24 04:19 | 11.94046 | 13.09728 | 35002 ft | 463 kts | 357° |
| 2026-04-24 04:20 | 12.00472 | 13.09447 | 35003 ft | 461 kts | 357° |
| 2026-04-24 04:20 | 12.06861 | 13.09213 | 35001 ft | 458 kts | 358° |
| 2026-04-24 04:21 | 12.13229 | 13.09020 | 35011 ft | 456 kts | 358° |
| 2026-04-24 04:21 | 12.19572 | 13.08835 | 35005 ft | 455 kts | 358° |
| 2026-04-24 04:22 | 12.25904 | 13.08647 | 35006 ft | 455 kts | 358° |
| 2026-04-24 04:22 | 12.32239 | 13.08459 | 35011 ft | 456 kts | 358° |
| 2026-04-24 04:23 | 12.38598 | 13.08271 | 35008 ft | 457 kts | 358° |
| 2026-04-24 04:23 | 12.44930 | 13.08089 | 35008 ft | 459 kts | 358° |
| 2026-04-24 04:24 | 12.51320 | 13.07906 | 35007 ft | 460 kts | 358° |
| 2026-04-24 04:24 | 12.57732 | 13.07721 | 35007 ft | 461 kts | 358° |
| 2026-04-24 04:25 | 12.64162 | 13.07535 | 35012 ft | 462 kts | 358° |
| 2026-04-24 04:25 | 12.70609 | 13.07349 | 35005 ft | 463 kts | 358° |
| 2026-04-24 04:26 | 12.77062 | 13.07162 | 35005 ft | 463 kts | 358° |
| 2026-04-24 04:26 | 12.83501 | 13.06976 | 35010 ft | 463 kts | 358° |
| 2026-04-24 04:27 | 12.89905 | 13.06791 | 35004 ft | 462 kts | 358° |
| 2026-04-24 04:27 | 12.96340 | 13.06604 | 35004 ft | 462 kts | 358° |
| 2026-04-24 04:28 | 13.02754 | 13.06418 | 35008 ft | 461 kts | 358° |
| 2026-04-24 04:28 | 13.09165 | 13.06232 | 35004 ft | 460 kts | 358° |
| 2026-04-24 04:29 | 13.15567 | 13.06047 | 35005 ft | 460 kts | 358° |
| 2026-04-24 04:29 | 13.21963 | 13.05861 | 35005 ft | 459 kts | 358° |
| 2026-04-24 04:30 | 13.28308 | 13.05677 | 35010 ft | 459 kts | 358° |
| 2026-04-24 04:30 | 13.34695 | 13.05491 | 35010 ft | 458 kts | 358° |
| 2026-04-24 04:31 | 13.41072 | 13.05305 | 35006 ft | 458 kts | 358° |
| 2026-04-24 04:31 | 13.47455 | 13.05120 | 35011 ft | 459 kts | 358° |
| 2026-04-24 04:32 | 13.53836 | 13.04934 | 35009 ft | 459 kts | 358° |
| 2026-04-24 04:32 | 13.60229 | 13.04769 | 35005 ft | 459 kts | 358° |
| 2026-04-24 04:33 | 13.66620 | 13.04631 | 35016 ft | 460 kts | 358° |
| 2026-04-24 04:33 | 13.73030 | 13.04492 | 35006 ft | 460 kts | 358° |
| 2026-04-24 04:34 | 13.79403 | 13.04349 | 35013 ft | 461 kts | 358° |
| 2026-04-24 04:34 | 13.85822 | 13.04204 | 35011 ft | 461 kts | 358° |
| 2026-04-24 04:35 | 13.92239 | 13.04059 | 35005 ft | 461 kts | 358° |
| 2026-04-24 04:35 | 13.98654 | 13.03913 | 35005 ft | 461 kts | 358° |
| 2026-04-24 04:36 | 14.05088 | 13.03768 | 35005 ft | 461 kts | 358° |
| 2026-04-24 04:36 | 14.11467 | 13.03623 | 35005 ft | 461 kts | 358° |
| 2026-04-24 04:37 | 14.17892 | 13.03477 | 35005 ft | 461 kts | 358° |
| 2026-04-24 04:37 | 14.24306 | 13.03332 | 35013 ft | 461 kts | 358° |
| 2026-04-24 04:38 | 14.30728 | 13.03160 | 35005 ft | 461 kts | 358° |
| 2026-04-24 04:38 | 14.37137 | 13.02952 | 35008 ft | 461 kts | 358° |
| 2026-04-24 04:39 | 14.43542 | 13.02742 | 35013 ft | 460 kts | 358° |
| 2026-04-24 04:39 | 14.49905 | 13.02539 | 35008 ft | 460 kts | 358° |
| 2026-04-24 04:40 | 14.56312 | 13.02337 | 35013 ft | 460 kts | 358° |
| 2026-04-24 04:40 | 14.62718 | 13.02135 | 35008 ft | 460 kts | 358° |
| 2026-04-24 04:41 | 14.69128 | 13.01934 | 35005 ft | 460 kts | 358° |
| 2026-04-24 04:41 | 14.75531 | 13.01732 | 35005 ft | 460 kts | 358° |
| 2026-04-24 04:42 | 14.81939 | 13.01529 | 35008 ft | 460 kts | 358° |
| 2026-04-24 04:42 | 14.88336 | 13.01327 | 35005 ft | 460 kts | 358° |
| 2026-04-24 04:43 | 14.94714 | 13.01126 | 35013 ft | 461 kts | 358° |
| 2026-04-24 04:43 | 15.01124 | 13.00923 | 35009 ft | 461 kts | 358° |
| 2026-04-24 04:44 | 15.07540 | 13.00720 | 35006 ft | 461 kts | 358° |
| 2026-04-24 04:44 | 15.13954 | 13.00517 | 35005 ft | 461 kts | 358° |
| 2026-04-24 04:45 | 15.20370 | 13.00314 | 35012 ft | 461 kts | 358° |
| 2026-04-24 04:45 | 15.26789 | 13.00110 | 35007 ft | 461 kts | 358° |
| 2026-04-24 04:46 | 15.33204 | 12.99907 | 35003 ft | 461 kts | 358° |
| 2026-04-24 04:46 | 15.39584 | 12.99705 | 35013 ft | 461 kts | 358° |
| 2026-04-24 04:47 | 15.46003 | 12.99501 | 35005 ft | 461 kts | 358° |
| 2026-04-24 04:47 | 15.52424 | 12.99297 | 35006 ft | 461 kts | 358° |
| 2026-04-24 04:48 | 15.58851 | 12.99092 | 35011 ft | 461 kts | 358° |
| 2026-04-24 04:48 | 15.65267 | 12.98888 | 35015 ft | 461 kts | 358° |
| 2026-04-24 04:49 | 15.71683 | 12.98684 | 35006 ft | 461 kts | 358° |
| 2026-04-24 04:49 | 15.78097 | 12.98480 | 35007 ft | 461 kts | 358° |
| 2026-04-24 04:50 | 15.84518 | 12.98275 | 35004 ft | 461 kts | 358° |
| 2026-04-24 04:50 | 15.90901 | 12.98071 | 35004 ft | 461 kts | 358° |
| 2026-04-24 04:51 | 15.97291 | 12.98266 | 34984 ft | 460 kts | 16° |
| 2026-04-24 04:51 | 16.00247 | 12.99511 | 35014 ft | 460 kts | 30° |
| 2026-04-24 04:51 | 16.02775 | 13.01532 | 35015 ft | 459 kts | 46° |
| 2026-04-24 04:52 | 16.07033 | 13.06487 | 35010 ft | 460 kts | 49° |
| 2026-04-24 04:52 | 16.11200 | 13.11503 | 35004 ft | 461 kts | 49° |
| 2026-04-24 04:53 | 16.15443 | 13.16535 | 35012 ft | 462 kts | 48° |
| 2026-04-24 04:53 | 16.19687 | 13.21512 | 35008 ft | 463 kts | 48° |
| 2026-04-24 04:54 | 16.23977 | 13.26531 | 35005 ft | 464 kts | 48° |
| 2026-04-24 04:54 | 16.28268 | 13.31557 | 35007 ft | 465 kts | 48° |
| 2026-04-24 04:55 | 16.32566 | 13.36596 | 35011 ft | 465 kts | 48° |
| 2026-04-24 04:55 | 16.36840 | 13.41614 | 35005 ft | 465 kts | 48° |
| 2026-04-24 04:56 | 16.41129 | 13.46651 | 35012 ft | 465 kts | 48° |
| 2026-04-24 04:56 | 16.45414 | 13.51688 | 35003 ft | 464 kts | 48° |
| 2026-04-24 04:57 | 16.49698 | 13.56728 | 35009 ft | 464 kts | 48° |
| 2026-04-24 04:57 | 16.53977 | 13.61766 | 35008 ft | 463 kts | 48° |
| 2026-04-24 04:58 | 16.58224 | 13.66767 | 35010 ft | 463 kts | 48° |
| 2026-04-24 04:58 | 16.62498 | 13.71790 | 35007 ft | 462 kts | 48° |
| 2026-04-24 04:59 | 16.66766 | 13.76806 | 35004 ft | 462 kts | 48° |
| 2026-04-24 04:59 | 16.71034 | 13.81828 | 35007 ft | 462 kts | 48° |
| 2026-04-24 05:00 | 16.75264 | 13.86810 | 35008 ft | 462 kts | 48° |
| 2026-04-24 05:00 | 16.79519 | 13.91825 | 35009 ft | 462 kts | 48° |
| 2026-04-24 05:01 | 16.83779 | 13.96851 | 35004 ft | 462 kts | 48° |
| 2026-04-24 05:01 | 16.88037 | 14.01878 | 35015 ft | 462 kts | 48° |
| 2026-04-24 05:02 | 16.92304 | 14.06919 | 35004 ft | 462 kts | 48° |
| 2026-04-24 05:02 | 16.96563 | 14.11955 | 35009 ft | 463 kts | 48° |
| 2026-04-24 05:03 | 17.00823 | 14.16994 | 35008 ft | 463 kts | 48° |
| 2026-04-24 05:03 | 17.05072 | 14.22026 | 35008 ft | 463 kts | 48° |
| 2026-04-24 05:04 | 17.08644 | 14.26258 | 35005 ft | 463 kts | 48° |
| 2026-04-24 05:04 | 17.12882 | 14.31283 | 35008 ft | 464 kts | 48° |
| 2026-04-24 05:05 | 17.17157 | 14.36356 | 35013 ft | 464 kts | 48° |
| 2026-04-24 05:05 | 17.21422 | 14.41422 | 35004 ft | 464 kts | 48° |
| 2026-04-24 05:06 | 17.25684 | 14.46488 | 35004 ft | 464 kts | 49° |
| 2026-04-24 05:06 | 17.29944 | 14.51554 | 35013 ft | 464 kts | 49° |
| 2026-04-24 05:07 | 17.34207 | 14.56630 | 35004 ft | 464 kts | 49° |
| 2026-04-24 05:07 | 17.38462 | 14.61703 | 35008 ft | 463 kts | 49° |
| 2026-04-24 05:08 | 17.42690 | 14.66750 | 35012 ft | 463 kts | 49° |
| 2026-04-24 05:08 | 17.46947 | 14.71834 | 35004 ft | 463 kts | 49° |
| 2026-04-24 05:09 | 17.51197 | 14.76915 | 35009 ft | 463 kts | 49° |
| 2026-04-24 05:09 | 17.55444 | 14.81996 | 35008 ft | 463 kts | 49° |
| 2026-04-24 05:10 | 17.59657 | 14.87039 | 35008 ft | 463 kts | 49° |
| 2026-04-24 05:10 | 17.63897 | 14.92126 | 35007 ft | 463 kts | 49° |
| 2026-04-24 05:11 | 17.68133 | 14.97213 | 35009 ft | 463 kts | 49° |
| 2026-04-24 05:11 | 17.72374 | 15.02311 | 35009 ft | 463 kts | 49° |
| 2026-04-24 05:12 | 17.76606 | 15.07401 | 35004 ft | 463 kts | 49° |
| 2026-04-24 05:12 | 17.80843 | 15.12501 | 35013 ft | 463 kts | 49° |
| 2026-04-24 05:13 | 17.87194 | 15.20155 | 35015 ft | 463 kts | 49° |
| 2026-04-24 05:14 | 17.91400 | 15.25228 | 35004 ft | 463 kts | 49° |
| 2026-04-24 05:14 | 17.95629 | 15.30332 | 35013 ft | 463 kts | 49° |
| 2026-04-24 05:15 | 17.99865 | 15.35450 | 35007 ft | 463 kts | 49° |
| 2026-04-24 05:15 | 18.04094 | 15.40564 | 35013 ft | 463 kts | 49° |
| 2026-04-24 05:16 | 18.08322 | 15.45679 | 35010 ft | 463 kts | 49° |
| 2026-04-24 05:16 | 18.12553 | 15.50803 | 35009 ft | 463 kts | 49° |
| 2026-04-24 05:17 | 18.16779 | 15.55924 | 35004 ft | 463 kts | 49° |
| 2026-04-24 05:17 | 18.20975 | 15.61014 | 35009 ft | 463 kts | 49° |
| 2026-04-24 05:18 | 18.25199 | 15.66141 | 35008 ft | 463 kts | 49° |
| 2026-04-24 05:18 | 18.29419 | 15.71268 | 35006 ft | 463 kts | 49° |
| 2026-04-24 05:19 | 18.33638 | 15.76398 | 35009 ft | 463 kts | 49° |
| 2026-04-24 05:19 | 18.37853 | 15.81528 | 35004 ft | 463 kts | 49° |
| 2026-04-24 05:20 | 18.42040 | 15.86628 | 35004 ft | 463 kts | 49° |
| 2026-04-24 05:20 | 18.46253 | 15.91764 | 35004 ft | 463 kts | 49° |
| 2026-04-24 05:21 | 18.50469 | 15.96907 | 35008 ft | 463 kts | 49° |
| 2026-04-24 05:21 | 18.54679 | 16.02046 | 35007 ft | 463 kts | 49° |
| 2026-04-24 05:22 | 18.58867 | 16.07156 | 35005 ft | 463 kts | 49° |
| 2026-04-24 05:22 | 18.63077 | 16.12298 | 35007 ft | 463 kts | 49° |
| 2026-04-24 05:23 | 18.67285 | 16.17445 | 35012 ft | 463 kts | 49° |
| 2026-04-24 05:23 | 18.71496 | 16.22599 | 35009 ft | 463 kts | 49° |
| 2026-04-24 05:24 | 18.75711 | 16.27763 | 35005 ft | 464 kts | 49° |
| 2026-04-24 05:24 | 18.79920 | 16.32924 | 35010 ft | 464 kts | 49° |
| 2026-04-24 05:25 | 18.84128 | 16.38087 | 35008 ft | 464 kts | 49° |
| 2026-04-24 05:25 | 18.88337 | 16.43257 | 35010 ft | 464 kts | 49° |
| 2026-04-24 05:26 | 18.92541 | 16.48424 | 35012 ft | 464 kts | 49° |
| 2026-04-24 05:26 | 18.96747 | 16.53598 | 35003 ft | 464 kts | 49° |
| 2026-04-24 05:27 | 19.00927 | 16.58745 | 35007 ft | 464 kts | 49° |
| 2026-04-24 05:27 | 19.05131 | 16.63925 | 35007 ft | 464 kts | 49° |
| 2026-04-24 05:28 | 19.09344 | 16.69122 | 35004 ft | 464 kts | 49° |
| 2026-04-24 05:28 | 19.13542 | 16.74304 | 35015 ft | 464 kts | 49° |
| 2026-04-24 05:29 | 19.17743 | 16.79493 | 35009 ft | 464 kts | 49° |
| 2026-04-24 05:29 | 19.21941 | 16.84685 | 35012 ft | 464 kts | 49° |
| 2026-04-24 05:30 | 19.26137 | 16.89877 | 35013 ft | 464 kts | 49° |
| 2026-04-24 05:30 | 19.30339 | 16.95082 | 35004 ft | 464 kts | 49° |
| 2026-04-24 05:31 | 19.34533 | 17.00282 | 35004 ft | 464 kts | 49° |
| 2026-04-24 05:31 | 19.38728 | 17.05487 | 35008 ft | 465 kts | 49° |
| 2026-04-24 05:32 | 19.42925 | 17.10699 | 35008 ft | 465 kts | 49° |
| 2026-04-24 05:32 | 19.47095 | 17.15883 | 35005 ft | 465 kts | 49° |
| 2026-04-24 05:33 | 19.51293 | 17.21105 | 35005 ft | 465 kts | 49° |
| 2026-04-24 05:33 | 19.55486 | 17.26326 | 35015 ft | 465 kts | 49° |
| 2026-04-24 05:34 | 19.61778 | 17.34168 | 35012 ft | 465 kts | 49° |
| 2026-04-24 05:34 | 19.65973 | 17.39404 | 35004 ft | 465 kts | 49° |
| 2026-04-24 05:35 | 19.70169 | 17.44644 | 35006 ft | 465 kts | 49° |
| 2026-04-24 05:35 | 19.74341 | 17.49859 | 35003 ft | 466 kts | 49° |
| 2026-04-24 05:36 | 19.78537 | 17.55109 | 35013 ft | 466 kts | 49° |
| 2026-04-24 05:36 | 19.82738 | 17.60370 | 35007 ft | 467 kts | 50° |
| 2026-04-24 05:37 | 19.86949 | 17.65649 | 35010 ft | 468 kts | 50° |
| 2026-04-24 05:37 | 19.91160 | 17.70932 | 35006 ft | 468 kts | 50° |
| 2026-04-24 05:38 | 19.95373 | 17.76223 | 35003 ft | 469 kts | 50° |
| 2026-04-24 05:38 | 19.99566 | 17.81493 | 35010 ft | 469 kts | 50° |
| 2026-04-24 05:39 | 20.03782 | 17.86797 | 35006 ft | 469 kts | 50° |
| 2026-04-24 05:39 | 20.07991 | 17.92098 | 35009 ft | 468 kts | 50° |
| 2026-04-24 05:40 | 20.12198 | 17.97401 | 35008 ft | 468 kts | 50° |
| 2026-04-24 05:40 | 20.16395 | 18.02695 | 35006 ft | 467 kts | 50° |
| 2026-04-24 05:41 | 20.20581 | 18.07978 | 35009 ft | 467 kts | 50° |
| 2026-04-24 05:41 | 20.24738 | 18.13227 | 35006 ft | 466 kts | 50° |
| 2026-04-24 05:42 | 20.28921 | 18.18518 | 35004 ft | 466 kts | 50° |
| 2026-04-24 05:42 | 20.33100 | 18.23807 | 35016 ft | 466 kts | 50° |
| 2026-04-24 05:43 | 20.37286 | 18.29110 | 35002 ft | 469 kts | 50° |
| 2026-04-24 05:43 | 20.41511 | 18.34469 | 35013 ft | 473 kts | 50° |
| 2026-04-24 05:44 | 20.45752 | 18.39853 | 35017 ft | 476 kts | 50° |
| 2026-04-24 05:44 | 20.50017 | 18.45272 | 35011 ft | 477 kts | 50° |
| 2026-04-24 05:45 | 20.54280 | 18.50694 | 35016 ft | 476 kts | 50° |
| 2026-04-24 05:45 | 20.58501 | 18.56067 | 35002 ft | 475 kts | 50° |
| 2026-04-24 05:46 | 20.62733 | 18.61460 | 35003 ft | 472 kts | 50° |
| 2026-04-24 05:46 | 20.66940 | 18.66826 | 35009 ft | 471 kts | 50° |
| 2026-04-24 05:47 | 20.71133 | 18.72179 | 35001 ft | 470 kts | 50° |
| 2026-04-24 05:47 | 20.75327 | 18.77539 | 35008 ft | 469 kts | 50° |
| 2026-04-24 05:48 | 20.79510 | 18.82888 | 35010 ft | 468 kts | 50° |
| 2026-04-24 05:48 | 20.83691 | 18.88241 | 34997 ft | 468 kts | 50° |
| 2026-04-24 05:49 | 20.87868 | 18.93594 | 35009 ft | 469 kts | 50° |
| 2026-04-24 05:49 | 20.92021 | 18.98921 | 35008 ft | 469 kts | 50° |
| 2026-04-24 05:50 | 20.95500 | 19.03388 | 35014 ft | 469 kts | 50° |
| 2026-04-24 05:50 | 20.99701 | 19.08787 | 35006 ft | 469 kts | 50° |
| 2026-04-24 05:51 | 21.03851 | 19.14125 | 35007 ft | 469 kts | 50° |
| 2026-04-24 05:51 | 21.08022 | 19.19494 | 35008 ft | 468 kts | 50° |
| 2026-04-24 05:52 | 21.12168 | 19.24837 | 35010 ft | 468 kts | 50° |
| 2026-04-24 05:52 | 21.16326 | 19.30201 | 35013 ft | 468 kts | 50° |
| 2026-04-24 05:53 | 21.20479 | 19.35564 | 35002 ft | 467 kts | 50° |
| 2026-04-24 05:53 | 21.24626 | 19.40924 | 35005 ft | 467 kts | 50° |
| 2026-04-24 05:54 | 21.28767 | 19.46281 | 35010 ft | 467 kts | 50° |
| 2026-04-24 05:54 | 21.32910 | 19.51647 | 35009 ft | 466 kts | 50° |
| 2026-04-24 05:55 | 21.37046 | 19.57008 | 35009 ft | 466 kts | 50° |
| 2026-04-24 05:55 | 21.41179 | 19.62371 | 35010 ft | 466 kts | 50° |
| 2026-04-24 05:56 | 21.45290 | 19.67711 | 35007 ft | 466 kts | 50° |
| 2026-04-24 05:56 | 21.49421 | 19.73083 | 35013 ft | 466 kts | 50° |
| 2026-04-24 05:57 | 21.53544 | 19.78450 | 35009 ft | 465 kts | 50° |
| 2026-04-24 05:57 | 21.57662 | 19.83813 | 35008 ft | 465 kts | 50° |
| 2026-04-24 05:58 | 21.61756 | 19.89149 | 35009 ft | 465 kts | 50° |
| 2026-04-24 05:58 | 21.65876 | 19.94522 | 35012 ft | 465 kts | 50° |
| 2026-04-24 05:59 | 21.69993 | 19.99896 | 35013 ft | 465 kts | 50° |
| 2026-04-24 05:59 | 21.74108 | 20.05276 | 35004 ft | 465 kts | 50° |
| 2026-04-24 06:00 | 21.78217 | 20.10654 | 35004 ft | 465 kts | 50° |
| 2026-04-24 06:00 | 21.82326 | 20.16035 | 35004 ft | 465 kts | 50° |
| 2026-04-24 06:01 | 21.86409 | 20.21390 | 35010 ft | 465 kts | 50° |
| 2026-04-24 06:01 | 21.90518 | 20.26783 | 35004 ft | 465 kts | 50° |
| 2026-04-24 06:02 | 21.94624 | 20.32176 | 35006 ft | 465 kts | 50° |
| 2026-04-24 06:02 | 21.98731 | 20.37578 | 35011 ft | 465 kts | 50° |
| 2026-04-24 06:03 | 22.02836 | 20.42982 | 35014 ft | 465 kts | 50° |
| 2026-04-24 06:03 | 22.06935 | 20.48384 | 35015 ft | 465 kts | 50° |
| 2026-04-24 06:04 | 22.11012 | 20.53762 | 35008 ft | 465 kts | 50° |
| 2026-04-24 06:04 | 22.15110 | 20.59173 | 35004 ft | 465 kts | 51° |
| 2026-04-24 06:05 | 22.19204 | 20.64584 | 35008 ft | 465 kts | 51° |
| 2026-04-24 06:05 | 22.23303 | 20.70009 | 35010 ft | 466 kts | 51° |
| 2026-04-24 06:06 | 22.27436 | 20.75484 | 35039 ft | 472 kts | 51° |
| 2026-04-24 06:06 | 22.31592 | 20.80994 | 35247 ft | 473 kts | 51° |
| 2026-04-24 06:07 | 22.33668 | 20.83749 | 35425 ft | 472 kts | 51° |
| 2026-04-24 06:07 | 22.35737 | 20.86495 | 35551 ft | 472 kts | 51° |
| 2026-04-24 06:07 | 22.39885 | 20.92007 | 35757 ft | 473 kts | 51° |
| 2026-04-24 06:08 | 22.41962 | 20.94768 | 35920 ft | 472 kts | 51° |
| 2026-04-24 06:08 | 22.43999 | 20.97478 | 36104 ft | 470 kts | 51° |
| 2026-04-24 06:08 | 22.46052 | 21.00212 | 36309 ft | 468 kts | 51° |
| 2026-04-24 06:08 | 22.48103 | 21.02943 | 36498 ft | 467 kts | 51° |
| 2026-04-24 06:09 | 22.50149 | 21.05670 | 36704 ft | 465 kts | 51° |
| 2026-04-24 06:09 | 22.52182 | 21.08379 | 36912 ft | 463 kts | 51° |
| 2026-04-24 06:09 | 22.56236 | 21.13789 | 36995 ft | 464 kts | 51° |
| 2026-04-24 06:10 | 22.60291 | 21.19205 | 36999 ft | 461 kts | 51° |
| 2026-04-24 06:11 | 22.66327 | 21.27277 | 37001 ft | 458 kts | 51° |
| 2026-04-24 06:11 | 22.70321 | 21.32625 | 37001 ft | 456 kts | 51° |
| 2026-04-24 06:12 | 22.74286 | 21.37940 | 37003 ft | 456 kts | 51° |
| 2026-04-24 06:12 | 22.78295 | 21.43319 | 37004 ft | 456 kts | 51° |
| 2026-04-24 06:13 | 22.82259 | 21.48643 | 37003 ft | 457 kts | 51° |
| 2026-04-24 06:13 | 22.86263 | 21.54027 | 37004 ft | 458 kts | 51° |
| 2026-04-24 06:14 | 22.90266 | 21.59415 | 37003 ft | 459 kts | 51° |
| 2026-04-24 06:14 | 22.94253 | 21.64788 | 37002 ft | 460 kts | 51° |
| 2026-04-24 06:15 | 22.98271 | 21.70207 | 37002 ft | 461 kts | 51° |
| 2026-04-24 06:15 | 23.02294 | 21.75639 | 37002 ft | 462 kts | 51° |
| 2026-04-24 06:16 | 23.06327 | 21.81090 | 37002 ft | 463 kts | 51° |
| 2026-04-24 06:16 | 23.10373 | 21.86564 | 37002 ft | 464 kts | 51° |
| 2026-04-24 06:17 | 23.14388 | 21.92003 | 37001 ft | 464 kts | 51° |
| 2026-04-24 06:17 | 23.18424 | 21.97476 | 37002 ft | 464 kts | 51° |
| 2026-04-24 06:18 | 23.22461 | 22.02956 | 37001 ft | 464 kts | 51° |
| 2026-04-24 06:18 | 23.26488 | 22.08429 | 37001 ft | 463 kts | 51° |
| 2026-04-24 06:19 | 23.30520 | 22.13913 | 37001 ft | 463 kts | 51° |
| 2026-04-24 06:19 | 23.34543 | 22.19391 | 37001 ft | 462 kts | 51° |
| 2026-04-24 06:20 | 23.38528 | 22.24825 | 37001 ft | 461 kts | 51° |
| 2026-04-24 06:20 | 23.42534 | 22.30292 | 37001 ft | 461 kts | 51° |
| 2026-04-24 06:21 | 23.46523 | 22.35742 | 37001 ft | 460 kts | 51° |
| 2026-04-24 06:21 | 23.50515 | 22.41203 | 37001 ft | 460 kts | 51° |
| 2026-04-24 06:22 | 23.54504 | 22.46664 | 37002 ft | 460 kts | 51° |
| 2026-04-24 06:22 | 23.58483 | 22.52118 | 37002 ft | 460 kts | 51° |
| 2026-04-24 06:23 | 23.62440 | 22.57547 | 37002 ft | 460 kts | 51° |
| 2026-04-24 06:23 | 23.66417 | 22.63010 | 37002 ft | 460 kts | 51° |
| 2026-04-24 06:24 | 23.70400 | 22.68488 | 37002 ft | 461 kts | 51° |
| 2026-04-24 06:24 | 23.74388 | 22.73978 | 37002 ft | 461 kts | 51° |
| 2026-04-24 06:25 | 23.78380 | 22.79480 | 37003 ft | 462 kts | 51° |
| 2026-04-24 06:25 | 23.82373 | 22.84990 | 37002 ft | 463 kts | 51° |
| 2026-04-24 06:26 | 23.86349 | 22.90482 | 37001 ft | 463 kts | 51° |
| 2026-04-24 06:26 | 23.90350 | 22.96014 | 37001 ft | 464 kts | 51° |
| 2026-04-24 06:27 | 23.94352 | 23.01555 | 37002 ft | 464 kts | 51° |
| 2026-04-24 06:27 | 23.98351 | 23.07097 | 37001 ft | 464 kts | 51° |
| 2026-04-24 06:28 | 24.02351 | 23.12647 | 37001 ft | 464 kts | 51° |
| 2026-04-24 06:28 | 24.06342 | 23.18192 | 37001 ft | 463 kts | 51° |
| 2026-04-24 06:29 | 24.10302 | 23.23698 | 37001 ft | 463 kts | 51° |
| 2026-04-24 06:29 | 24.14387 | 23.29162 | 36992 ft | 463 kts | 44° |
| 2026-04-24 06:30 | 24.19516 | 23.33370 | 37000 ft | 461 kts | 28° |
| 2026-04-24 06:30 | 24.25198 | 23.36638 | 37001 ft | 461 kts | 27° |
| 2026-04-24 06:31 | 24.30892 | 23.39871 | 37000 ft | 461 kts | 27° |
| 2026-04-24 06:31 | 24.36579 | 23.43152 | 37002 ft | 461 kts | 27° |
| 2026-04-24 06:32 | 24.42212 | 23.46438 | 37001 ft | 462 kts | 28° |
| 2026-04-24 06:32 | 24.47880 | 23.49758 | 37002 ft | 462 kts | 28° |
| 2026-04-24 06:33 | 24.53554 | 23.53085 | 37001 ft | 462 kts | 28° |
| 2026-04-24 06:33 | 24.59235 | 23.56418 | 37002 ft | 463 kts | 28° |
| 2026-04-24 06:34 | 24.64929 | 23.59761 | 37001 ft | 463 kts | 28° |
| 2026-04-24 06:34 | 24.70580 | 23.63082 | 37002 ft | 464 kts | 28° |
| 2026-04-24 06:35 | 24.76266 | 23.66427 | 37002 ft | 464 kts | 28° |
| 2026-04-24 06:35 | 24.81958 | 23.69779 | 37001 ft | 464 kts | 28° |
| 2026-04-24 06:36 | 24.87649 | 23.73135 | 37001 ft | 464 kts | 28° |
| 2026-04-24 06:36 | 24.93343 | 23.76495 | 37001 ft | 464 kts | 28° |
| 2026-04-24 06:37 | 24.98073 | 23.79290 | 37002 ft | 464 kts | 28° |
| 2026-04-24 06:37 | 25.03761 | 23.82653 | 37001 ft | 464 kts | 28° |
| 2026-04-24 06:38 | 25.09449 | 23.86020 | 37002 ft | 464 kts | 28° |
| 2026-04-24 06:38 | 25.15133 | 23.89389 | 37001 ft | 464 kts | 28° |
| 2026-04-24 06:39 | 25.20825 | 23.92765 | 37002 ft | 464 kts | 28° |
| 2026-04-24 06:39 | 25.26506 | 23.96139 | 37001 ft | 464 kts | 28° |
| 2026-04-24 06:40 | 25.32166 | 23.99504 | 37003 ft | 464 kts | 28° |
| 2026-04-24 06:40 | 25.37848 | 24.02886 | 37002 ft | 464 kts | 28° |
| 2026-04-24 06:41 | 25.43537 | 24.06275 | 37001 ft | 464 kts | 28° |
| 2026-04-24 06:41 | 25.49216 | 24.09662 | 37001 ft | 464 kts | 28° |
| 2026-04-24 06:42 | 25.54905 | 24.13059 | 37002 ft | 464 kts | 28° |
| 2026-04-24 06:42 | 25.60587 | 24.16455 | 37001 ft | 464 kts | 28° |
| 2026-04-24 06:43 | 25.66246 | 24.19841 | 37001 ft | 464 kts | 28° |
| 2026-04-24 06:43 | 25.71935 | 24.23249 | 37001 ft | 464 kts | 28° |
| 2026-04-24 06:44 | 25.77622 | 24.26659 | 37002 ft | 464 kts | 28° |
| 2026-04-24 06:44 | 25.83301 | 24.30069 | 37001 ft | 464 kts | 28° |
| 2026-04-24 06:45 | 25.88949 | 24.33463 | 37002 ft | 465 kts | 28° |
| 2026-04-24 06:45 | 25.94637 | 24.36885 | 36999 ft | 465 kts | 28° |
| 2026-04-24 06:46 | 26.00329 | 24.40313 | 37003 ft | 465 kts | 28° |
| 2026-04-24 06:46 | 26.06016 | 24.43743 | 37001 ft | 465 kts | 28° |
| 2026-04-24 06:47 | 26.11704 | 24.47176 | 37002 ft | 465 kts | 28° |
| 2026-04-24 06:47 | 26.17395 | 24.50616 | 37001 ft | 465 kts | 28° |
| 2026-04-24 06:48 | 26.23043 | 24.54033 | 37002 ft | 465 kts | 28° |
| 2026-04-24 06:48 | 26.28724 | 24.57474 | 37001 ft | 465 kts | 28° |
| 2026-04-24 06:49 | 26.34412 | 24.60923 | 37002 ft | 465 kts | 28° |
| 2026-04-24 06:49 | 26.40092 | 24.64371 | 37002 ft | 465 kts | 28° |
| 2026-04-24 06:50 | 26.45786 | 24.67831 | 37001 ft | 465 kts | 28° |
| 2026-04-24 06:50 | 26.51475 | 24.71293 | 37002 ft | 465 kts | 28° |
| 2026-04-24 06:51 | 26.57125 | 24.74735 | 37002 ft | 465 kts | 28° |
| 2026-04-24 06:51 | 26.62805 | 24.78199 | 37001 ft | 465 kts | 28° |
| 2026-04-24 06:52 | 26.68493 | 24.81672 | 37001 ft | 465 kts | 28° |
| 2026-04-24 06:52 | 26.74172 | 24.85143 | 37002 ft | 465 kts | 28° |
| 2026-04-24 06:53 | 26.79851 | 24.88618 | 37001 ft | 465 kts | 28° |
| 2026-04-24 06:53 | 26.85533 | 24.92100 | 37002 ft | 465 kts | 28° |
| 2026-04-24 06:54 | 26.91170 | 24.95580 | 36998 ft | 465 kts | 32° |
| 2026-04-24 06:54 | 26.93630 | 24.97917 | 37003 ft | 464 kts | 51° |
| 2026-04-24 06:54 | 26.95358 | 25.00961 | 36997 ft | 464 kts | 67° |
| 2026-04-24 06:54 | 26.96259 | 25.04417 | 37013 ft | 463 kts | 82° |
| 2026-04-24 06:55 | 26.96368 | 25.08022 | 36990 ft | 464 kts | 98° |
| 2026-04-24 06:55 | 26.94799 | 25.15026 | 37000 ft | 464 kts | 106° |
| 2026-04-24 06:56 | 26.92947 | 25.21966 | 36999 ft | 466 kts | 107° |
| 2026-04-24 06:56 | 26.91116 | 25.28937 | 36996 ft | 466 kts | 106° |
| 2026-04-24 06:57 | 26.89324 | 25.35927 | 37000 ft | 467 kts | 106° |
| 2026-04-24 06:57 | 26.87547 | 25.42929 | 37001 ft | 467 kts | 106° |
| 2026-04-24 06:58 | 26.85777 | 25.49894 | 37001 ft | 468 kts | 106° |
| 2026-04-24 06:58 | 26.83990 | 25.56906 | 37001 ft | 468 kts | 106° |
| 2026-04-24 06:59 | 26.82198 | 25.63914 | 37001 ft | 468 kts | 106° |
| 2026-04-24 06:59 | 26.80410 | 25.70891 | 37001 ft | 468 kts | 106° |
| 2026-04-24 07:00 | 26.78611 | 25.77896 | 37002 ft | 468 kts | 106° |
| 2026-04-24 07:00 | 26.76810 | 25.84895 | 37001 ft | 468 kts | 106° |
| 2026-04-24 07:01 | 26.75003 | 25.91898 | 37001 ft | 468 kts | 106° |
| 2026-04-24 07:01 | 26.73193 | 25.98899 | 37002 ft | 468 kts | 106° |
| 2026-04-24 07:02 | 26.71379 | 26.05898 | 37001 ft | 468 kts | 106° |
| 2026-04-24 07:02 | 26.69561 | 26.12898 | 37002 ft | 468 kts | 106° |
| 2026-04-24 07:03 | 26.67749 | 26.19862 | 37002 ft | 468 kts | 106° |
| 2026-04-24 07:03 | 26.65925 | 26.26856 | 37002 ft | 468 kts | 106° |
| 2026-04-24 07:04 | 26.64096 | 26.33850 | 37001 ft | 468 kts | 106° |
| 2026-04-24 07:04 | 26.62265 | 26.40839 | 37002 ft | 468 kts | 106° |
| 2026-04-24 07:05 | 26.60430 | 26.47829 | 37002 ft | 468 kts | 106° |
| 2026-04-24 07:05 | 26.58600 | 26.54783 | 37002 ft | 468 kts | 106° |
| 2026-04-24 07:06 | 26.56759 | 26.61767 | 37001 ft | 468 kts | 106° |
| 2026-04-24 07:06 | 26.54911 | 26.68756 | 37002 ft | 468 kts | 106° |
| 2026-04-24 07:07 | 26.53061 | 26.75742 | 37001 ft | 469 kts | 107° |
| 2026-04-24 07:07 | 26.50294 | 26.86162 | 37001 ft | 469 kts | 107° |
| 2026-04-24 07:08 | 26.48436 | 26.93139 | 37001 ft | 469 kts | 107° |
| 2026-04-24 07:08 | 26.46574 | 27.00118 | 37002 ft | 469 kts | 107° |
| 2026-04-24 07:09 | 26.44710 | 27.07089 | 37002 ft | 469 kts | 107° |
| 2026-04-24 07:09 | 26.42843 | 27.14056 | 37000 ft | 469 kts | 107° |
| 2026-04-24 07:10 | 26.40972 | 27.21020 | 37002 ft | 469 kts | 107° |
| 2026-04-24 07:10 | 26.39109 | 27.27945 | 37002 ft | 469 kts | 107° |
| 2026-04-24 07:11 | 26.37232 | 27.34904 | 37001 ft | 468 kts | 107° |
| 2026-04-24 07:11 | 26.35351 | 27.41865 | 37001 ft | 468 kts | 107° |
| 2026-04-24 07:12 | 26.33465 | 27.48827 | 37001 ft | 468 kts | 107° |
| 2026-04-24 07:12 | 26.31578 | 27.55781 | 37002 ft | 468 kts | 107° |
| 2026-04-24 07:13 | 26.29690 | 27.62722 | 37001 ft | 468 kts | 107° |
| 2026-04-24 07:13 | 26.27807 | 27.69631 | 37001 ft | 468 kts | 107° |
| 2026-04-24 07:14 | 26.25911 | 27.76573 | 37001 ft | 468 kts | 107° |
| 2026-04-24 07:14 | 26.24013 | 27.83509 | 36999 ft | 468 kts | 107° |
| 2026-04-24 07:15 | 26.22109 | 27.90452 | 37002 ft | 468 kts | 107° |
| 2026-04-24 07:15 | 26.20202 | 27.97389 | 37001 ft | 469 kts | 107° |
| 2026-04-24 07:16 | 26.18290 | 28.04331 | 37002 ft | 469 kts | 107° |
| 2026-04-24 07:16 | 26.16375 | 28.11274 | 37002 ft | 469 kts | 107° |
| 2026-04-24 07:17 | 26.14454 | 28.18222 | 37002 ft | 469 kts | 107° |
| 2026-04-24 07:17 | 26.12529 | 28.25170 | 37001 ft | 470 kts | 107° |
| 2026-04-24 07:18 | 26.10602 | 28.32115 | 37002 ft | 470 kts | 107° |
| 2026-04-24 07:18 | 26.08676 | 28.39025 | 37000 ft | 470 kts | 107° |
| 2026-04-24 07:19 | 26.06730 | 28.45961 | 37002 ft | 470 kts | 107° |
| 2026-04-24 07:19 | 26.04783 | 28.52890 | 37003 ft | 469 kts | 107° |
| 2026-04-24 07:20 | 26.02832 | 28.59824 | 37001 ft | 469 kts | 107° |
| 2026-04-24 07:20 | 26.00880 | 28.66753 | 37001 ft | 469 kts | 107° |
| 2026-04-24 07:21 | 25.98933 | 28.73646 | 37001 ft | 469 kts | 107° |
| 2026-04-24 07:21 | 25.96976 | 28.80564 | 37001 ft | 469 kts | 107° |
| 2026-04-24 07:22 | 25.95011 | 28.87496 | 37002 ft | 469 kts | 107° |
| 2026-04-24 07:22 | 25.93049 | 28.94402 | 37001 ft | 469 kts | 108° |
| 2026-04-24 07:23 | 25.91093 | 29.01272 | 37001 ft | 469 kts | 108° |
| 2026-04-24 07:23 | 25.89122 | 29.08184 | 37001 ft | 469 kts | 108° |
| 2026-04-24 07:24 | 25.87149 | 29.15089 | 37002 ft | 469 kts | 108° |
| 2026-04-24 07:24 | 25.85172 | 29.21991 | 37002 ft | 469 kts | 108° |
| 2026-04-24 07:25 | 25.83192 | 29.28894 | 37001 ft | 469 kts | 108° |
| 2026-04-24 07:25 | 25.81541 | 29.34638 | 37002 ft | 469 kts | 108° |
| 2026-04-24 07:26 | 25.79555 | 29.41539 | 37002 ft | 470 kts | 108° |
| 2026-04-24 07:26 | 25.77558 | 29.48448 | 37000 ft | 470 kts | 108° |
| 2026-04-24 07:27 | 25.75546 | 29.55343 | 37000 ft | 470 kts | 108° |
| 2026-04-24 07:27 | 25.73527 | 29.62247 | 37003 ft | 470 kts | 108° |
| 2026-04-24 07:28 | 25.71519 | 29.69104 | 37000 ft | 470 kts | 108° |
| 2026-04-24 07:28 | 25.69495 | 29.76011 | 37003 ft | 470 kts | 108° |
| 2026-04-24 07:29 | 25.67468 | 29.82912 | 37001 ft | 470 kts | 108° |
| 2026-04-24 07:29 | 25.65439 | 29.89807 | 37004 ft | 470 kts | 108° |
| 2026-04-24 07:30 | 25.63404 | 29.96712 | 37000 ft | 470 kts | 108° |
| 2026-04-24 07:30 | 25.61382 | 30.03556 | 37002 ft | 470 kts | 108° |
| 2026-04-24 07:31 | 25.59341 | 30.10454 | 37001 ft | 470 kts | 108° |
| 2026-04-24 07:31 | 25.57296 | 30.17348 | 37007 ft | 470 kts | 108° |
| 2026-04-24 07:32 | 25.55254 | 30.24223 | 36998 ft | 469 kts | 108° |
| 2026-04-24 07:32 | 25.53224 | 30.31043 | 37001 ft | 469 kts | 108° |
| 2026-04-24 07:33 | 25.51169 | 30.37936 | 37001 ft | 468 kts | 108° |
| 2026-04-24 07:33 | 25.49128 | 30.44769 | 37001 ft | 467 kts | 108° |
| 2026-04-24 07:34 | 25.47084 | 30.51552 | 37002 ft | 467 kts | 108° |
| 2026-04-24 07:34 | 25.45465 | 30.58496 | 36999 ft | 467 kts | 96° |
| 2026-04-24 07:35 | 25.45688 | 30.65640 | 37004 ft | 466 kts | 79° |
| 2026-04-24 07:35 | 25.46881 | 30.72690 | 37001 ft | 466 kts | 80° |
| 2026-04-24 07:36 | 25.47941 | 30.79747 | 37000 ft | 466 kts | 81° |
| 2026-04-24 07:36 | 25.48956 | 30.86846 | 36997 ft | 467 kts | 81° |
| 2026-04-24 07:37 | 25.49974 | 30.93966 | 37004 ft | 468 kts | 81° |
| 2026-04-24 07:37 | 25.50999 | 31.01097 | 37001 ft | 469 kts | 81° |
| 2026-04-24 07:38 | 25.52019 | 31.08195 | 37002 ft | 469 kts | 81° |
| 2026-04-24 07:38 | 25.53041 | 31.15334 | 37001 ft | 470 kts | 81° |
| 2026-04-24 07:39 | 25.54061 | 31.22485 | 37002 ft | 470 kts | 81° |
| 2026-04-24 07:39 | 25.55077 | 31.29636 | 37001 ft | 470 kts | 81° |
| 2026-04-24 07:40 | 25.56091 | 31.36795 | 37002 ft | 470 kts | 81° |
| 2026-04-24 07:40 | 25.57097 | 31.43926 | 37002 ft | 470 kts | 81° |
| 2026-04-24 07:41 | 25.58104 | 31.51089 | 37002 ft | 470 kts | 81° |
| 2026-04-24 07:41 | 25.59107 | 31.58252 | 37000 ft | 470 kts | 81° |
| 2026-04-24 07:42 | 25.60106 | 31.65408 | 37002 ft | 470 kts | 81° |
| 2026-04-24 07:42 | 25.61101 | 31.72562 | 37002 ft | 470 kts | 81° |
| 2026-04-24 07:43 | 25.62086 | 31.79675 | 37001 ft | 470 kts | 81° |
| 2026-04-24 07:43 | 25.63073 | 31.86824 | 37001 ft | 469 kts | 81° |
| 2026-04-24 07:44 | 25.64040 | 31.93984 | 37001 ft | 469 kts | 81° |
| 2026-04-24 07:44 | 25.64992 | 32.01137 | 37001 ft | 469 kts | 82° |
| 2026-04-24 07:45 | 25.65943 | 32.08294 | 37002 ft | 469 kts | 82° |
| 2026-04-24 07:45 | 25.66894 | 32.15457 | 37001 ft | 469 kts | 82° |
| 2026-04-24 07:46 | 25.67842 | 32.22629 | 37002 ft | 469 kts | 82° |
| 2026-04-24 07:46 | 25.68780 | 32.29747 | 37000 ft | 469 kts | 82° |
| 2026-04-24 07:47 | 25.69725 | 32.36950 | 37002 ft | 469 kts | 82° |
| 2026-04-24 07:47 | 25.70656 | 32.44070 | 37000 ft | 470 kts | 82° |
| 2026-04-24 07:48 | 25.71589 | 32.51239 | 37002 ft | 469 kts | 82° |
| 2026-04-24 07:48 | 25.72518 | 32.58400 | 37000 ft | 468 kts | 82° |
| 2026-04-24 07:49 | 25.73442 | 32.65549 | 37003 ft | 468 kts | 82° |
| 2026-04-24 07:49 | 25.74297 | 32.72694 | 36990 ft | 467 kts | 88° |
| 2026-04-24 07:50 | 25.74057 | 32.76278 | 37010 ft | 466 kts | 102° |
| 2026-04-24 07:50 | 25.73129 | 32.79717 | 36995 ft | 466 kts | 114° |
| 2026-04-24 07:50 | 25.69755 | 32.85833 | 37005 ft | 466 kts | 124° |
| 2026-04-24 07:51 | 25.66119 | 32.91732 | 37000 ft | 467 kts | 124° |
| 2026-04-24 07:51 | 25.62490 | 32.97704 | 37000 ft | 468 kts | 124° |
| 2026-04-24 07:52 | 25.58885 | 33.03718 | 37002 ft | 469 kts | 123° |
| 2026-04-24 07:52 | 25.55280 | 33.09749 | 37005 ft | 469 kts | 123° |
| 2026-04-24 07:53 | 25.51669 | 33.15778 | 37002 ft | 469 kts | 123° |
| 2026-04-24 07:53 | 25.48052 | 33.21809 | 37000 ft | 469 kts | 123° |
| 2026-04-24 07:54 | 25.44457 | 33.27790 | 37001 ft | 469 kts | 123° |
| 2026-04-24 07:54 | 25.40845 | 33.33795 | 37001 ft | 469 kts | 124° |
| 2026-04-24 07:55 | 25.37225 | 33.39805 | 36999 ft | 469 kts | 124° |
| 2026-04-24 07:55 | 25.33601 | 33.45818 | 37004 ft | 469 kts | 124° |
| 2026-04-24 07:56 | 25.29999 | 33.51780 | 37000 ft | 469 kts | 124° |
| 2026-04-24 07:56 | 25.26366 | 33.57778 | 37002 ft | 469 kts | 124° |
| 2026-04-24 07:57 | 25.22739 | 33.63759 | 37002 ft | 469 kts | 124° |
| 2026-04-24 07:57 | 25.19107 | 33.69744 | 37001 ft | 469 kts | 124° |
| 2026-04-24 07:58 | 25.15472 | 33.75728 | 37001 ft | 469 kts | 124° |
| 2026-04-24 07:58 | 25.11832 | 33.81711 | 37000 ft | 469 kts | 124° |
| 2026-04-24 07:59 | 25.08206 | 33.87666 | 37004 ft | 469 kts | 124° |
| 2026-04-24 07:59 | 25.04561 | 33.93643 | 37000 ft | 469 kts | 124° |
| 2026-04-24 08:00 | 25.00910 | 33.99622 | 37002 ft | 470 kts | 124° |
| 2026-04-24 08:00 | 24.97259 | 34.05595 | 37000 ft | 470 kts | 124° |
| 2026-04-24 08:01 | 24.93605 | 34.11564 | 37003 ft | 470 kts | 124° |
| 2026-04-24 08:01 | 24.89966 | 34.17502 | 37001 ft | 470 kts | 124° |
| 2026-04-24 08:02 | 24.86299 | 34.23479 | 37001 ft | 470 kts | 124° |
| 2026-04-24 08:02 | 24.82637 | 34.29438 | 37003 ft | 470 kts | 124° |
| 2026-04-24 08:03 | 24.78972 | 34.35397 | 36999 ft | 470 kts | 124° |
| 2026-04-24 08:03 | 24.75329 | 34.41313 | 37003 ft | 470 kts | 124° |
| 2026-04-24 08:04 | 24.71653 | 34.47273 | 37001 ft | 470 kts | 124° |
| 2026-04-24 08:04 | 24.67980 | 34.53223 | 37001 ft | 470 kts | 124° |
| 2026-04-24 08:05 | 24.64308 | 34.59163 | 37001 ft | 470 kts | 124° |
| 2026-04-24 08:05 | 24.60631 | 34.65105 | 37003 ft | 470 kts | 124° |
| 2026-04-24 08:06 | 24.56954 | 34.71038 | 37001 ft | 469 kts | 124° |
| 2026-04-24 08:06 | 24.53277 | 34.76964 | 37002 ft | 469 kts | 124° |
| 2026-04-24 08:07 | 24.49593 | 34.82895 | 37000 ft | 469 kts | 124° |
| 2026-04-24 08:07 | 24.45916 | 34.88807 | 37002 ft | 469 kts | 124° |
| 2026-04-24 08:08 | 24.42257 | 34.94683 | 37004 ft | 469 kts | 124° |
| 2026-04-24 08:09 | 24.36727 | 35.03551 | 37000 ft | 469 kts | 124° |
| 2026-04-24 08:09 | 24.33042 | 35.09452 | 37002 ft | 468 kts | 124° |
| 2026-04-24 08:10 | 24.29360 | 35.15340 | 37002 ft | 468 kts | 124° |
| 2026-04-24 08:10 | 24.25671 | 35.21233 | 37000 ft | 468 kts | 124° |
| 2026-04-24 08:11 | 24.21984 | 35.27115 | 37003 ft | 468 kts | 124° |
| 2026-04-24 08:11 | 24.18320 | 35.32954 | 37003 ft | 468 kts | 124° |
| 2026-04-24 08:12 | 24.14635 | 35.38819 | 37001 ft | 467 kts | 124° |
| 2026-04-24 08:12 | 24.10948 | 35.44680 | 37002 ft | 467 kts | 124° |
| 2026-04-24 08:13 | 24.07260 | 35.50538 | 36998 ft | 467 kts | 124° |
| 2026-04-24 08:13 | 24.03575 | 35.56384 | 37002 ft | 466 kts | 124° |
| 2026-04-24 08:14 | 23.99888 | 35.62226 | 37000 ft | 466 kts | 124° |
| 2026-04-24 08:14 | 23.96824 | 35.67075 | 37000 ft | 466 kts | 124° |
| 2026-04-24 08:15 | 23.93130 | 35.72914 | 37004 ft | 466 kts | 125° |
| 2026-04-24 08:15 | 23.89440 | 35.78740 | 37000 ft | 466 kts | 125° |
| 2026-04-24 08:16 | 23.85746 | 35.84568 | 37002 ft | 466 kts | 125° |
| 2026-04-24 08:16 | 23.82056 | 35.90384 | 37002 ft | 466 kts | 125° |
| 2026-04-24 08:17 | 23.78363 | 35.96199 | 37002 ft | 466 kts | 125° |
| 2026-04-24 08:17 | 23.74684 | 36.01984 | 37002 ft | 466 kts | 125° |
| 2026-04-24 08:18 | 23.70986 | 36.07794 | 37002 ft | 466 kts | 125° |
| 2026-04-24 08:18 | 23.67287 | 36.13597 | 37002 ft | 466 kts | 125° |
| 2026-04-24 08:19 | 23.63577 | 36.19411 | 37002 ft | 466 kts | 125° |
| 2026-04-24 08:19 | 23.59870 | 36.25213 | 37002 ft | 466 kts | 125° |
| 2026-04-24 08:20 | 23.56187 | 36.30972 | 37002 ft | 466 kts | 125° |
| 2026-04-24 08:20 | 23.52478 | 36.36764 | 37002 ft | 466 kts | 125° |
| 2026-04-24 08:21 | 23.48765 | 36.42556 | 37002 ft | 466 kts | 125° |
| 2026-04-24 08:21 | 23.45052 | 36.48342 | 37002 ft | 466 kts | 125° |
| 2026-04-24 08:22 | 23.41330 | 36.54135 | 37002 ft | 466 kts | 125° |
| 2026-04-24 08:22 | 23.37612 | 36.59915 | 37002 ft | 466 kts | 125° |
| 2026-04-24 08:23 | 23.33889 | 36.65696 | 37002 ft | 466 kts | 125° |
| 2026-04-24 08:23 | 23.30165 | 36.71474 | 37002 ft | 466 kts | 125° |
| 2026-04-24 08:24 | 23.26430 | 36.77261 | 37002 ft | 466 kts | 125° |
| 2026-04-24 08:24 | 23.22726 | 36.82993 | 37002 ft | 466 kts | 125° |
| 2026-04-24 08:25 | 23.18994 | 36.88763 | 37002 ft | 466 kts | 125° |
| 2026-04-24 08:25 | 23.15250 | 36.94546 | 37002 ft | 466 kts | 125° |
| 2026-04-24 08:26 | 23.11509 | 37.00317 | 37002 ft | 466 kts | 125° |
| 2026-04-24 08:26 | 23.07797 | 37.06037 | 37002 ft | 466 kts | 125° |
| 2026-04-24 08:27 | 23.04061 | 37.11790 | 37002 ft | 466 kts | 125° |
| 2026-04-24 08:27 | 23.00310 | 37.17544 | 37002 ft | 466 kts | 126° |
| 2026-04-24 08:28 | 22.96540 | 37.23284 | 37002 ft | 466 kts | 126° |
| 2026-04-24 08:28 | 22.92770 | 37.29016 | 37002 ft | 466 kts | 126° |
| 2026-04-24 08:29 | 22.89025 | 37.34710 | 37002 ft | 466 kts | 126° |
| 2026-04-24 08:29 | 22.85258 | 37.40434 | 37002 ft | 466 kts | 126° |
| 2026-04-24 08:30 | 22.81490 | 37.46154 | 37002 ft | 466 kts | 126° |
| 2026-04-24 08:30 | 22.77715 | 37.51879 | 37002 ft | 466 kts | 126° |
| 2026-04-24 08:31 | 22.73936 | 37.57604 | 37002 ft | 466 kts | 126° |
| 2026-04-24 08:31 | 22.70163 | 37.63315 | 37002 ft | 466 kts | 126° |
| 2026-04-24 08:32 | 22.66402 | 37.69048 | 37002 ft | 466 kts | 125° |
| 2026-04-24 08:32 | 22.63800 | 37.73023 | 37002 ft | 466 kts | 125° |